Time;durP1;ratioP1;P1;durP2;ratioP2;P2;SDS_P1;SDS_P2;PMS_P1;PMS_P2;Temp;Humidity;BMP_temperature;BMP_pressure;BME280_temperature;BME280_humidity;BME280_pressure;Samples;Min_cycle;Max_cycle;Signal;HPM_P1;HPM_P2
2023/03/02 00:00:36;;;;;;;28.70;22.40;;;4.70;1.00;;;;;;5036143;28;20676;-40
2023/03/02 00:03:03;;;;;;;27.83;23.37;;;4.60;1.00;;;;;;5035724;28;20448;-41
2023/03/02 00:05:29;;;;;;;27.63;21.57;;;4.60;1.00;;;;;;5033702;28;20413;-40
2023/03/02 00:07:57;;;;;;;29.40;22.33;;;4.60;1.00;;;;;;5033558;28;20861;-41
2023/03/02 00:10:23;;;;;;;28.90;22.87;;;4.60;1.00;;;;;;5043284;28;20556;-40
2023/03/02 00:12:48;;;;;;;31.57;23.20;;;4.60;1.00;;;;;;5035232;28;20484;-40
2023/03/02 00:15:14;;;;;;;29.87;24.30;;;4.50;1.00;;;;;;5035404;28;20178;-40
2023/03/02 00:17:40;;;;;;;26.50;21.83;;;4.50;1.00;;;;;;5035236;28;20220;-48
2023/03/02 00:20:09;;;;;;;29.20;23.83;;;4.40;1.00;;;;;;5053138;28;20564;-40
2023/03/02 00:22:39;;;;;;;26.10;22.20;;;4.40;1.00;;;;;;5054785;28;20181;-40
2023/03/02 00:25:05;;;;;;;29.63;22.80;;;4.40;1.00;;;;;;5053592;28;20529;-41
2023/03/02 00:27:31;;;;;;;30.67;22.57;;;4.40;1.00;;;;;;5054079;28;20427;-41
2023/03/02 00:29:57;;;;;;;28.40;22.07;;;4.40;1.00;;;;;;5055064;28;20882;-42
2023/03/02 00:32:23;;;;;;;29.37;23.57;;;4.40;1.00;;;;;;5055403;28;20212;-41
2023/03/02 00:34:48;;;;;;;28.57;21.67;;;4.30;1.00;;;;;;5036847;28;20190;-40
2023/03/02 00:37:14;;;;;;;26.17;22.00;;;4.30;1.00;;;;;;5035606;28;20567;-42
2023/03/02 00:39:40;;;;;;;31.30;23.10;;;4.30;1.00;;;;;;5032654;28;20212;-40
2023/03/02 00:42:05;;;;;;;26.50;21.60;;;4.30;1.00;;;;;;5033811;28;20178;-41
2023/03/02 00:44:31;;;;;;;29.33;23.33;;;4.20;1.00;;;;;;5031269;28;20479;-40
2023/03/02 00:46:57;;;;;;;30.70;22.70;;;4.20;1.00;;;;;;5033608;28;20560;-41
2023/03/02 00:49:22;;;;;;;28.13;21.97;;;4.20;1.00;;;;;;5033578;28;20175;-41
2023/03/02 00:51:48;;;;;;;26.40;22.30;;;4.20;1.00;;;;;;5033657;28;20223;-40
2023/03/02 00:54:13;;;;;;;27.10;21.90;;;4.20;1.00;;;;;;5033292;28;20280;-41
2023/03/02 00:56:39;;;;;;;26.43;21.60;;;4.20;1.00;;;;;;5034113;28;20525;-42
2023/03/02 00:59:09;;;;;;;27.90;23.37;;;4.10;1.00;;;;;;5034600;28;20316;-40
2023/03/02 01:01:36;;;;;;;28.30;22.00;;;4.10;1.00;;;;;;5035361;28;20190;-40
2023/03/02 01:04:02;;;;;;;24.33;21.20;;;4.10;1.00;;;;;;5035001;28;20715;-42
2023/03/02 01:06:28;;;;;;;26.37;21.63;;;4.10;1.00;;;;;;5034422;28;20771;-40
2023/03/02 01:08:54;;;;;;;31.40;22.67;;;4.10;1.00;;;;;;5035712;28;20453;-40
2023/03/02 01:11:21;;;;;;;28.47;22.90;;;4.00;1.00;;;;;;5035496;28;20210;-40
2023/03/02 01:13:47;;;;;;;29.50;22.93;;;4.00;1.00;;;;;;5035687;28;20205;-40
2023/03/02 01:16:13;;;;;;;29.00;21.90;;;4.00;1.00;;;;;;5036310;28;20796;-41
2023/03/02 01:18:39;;;;;;;29.33;22.37;;;4.00;1.00;;;;;;5035758;28;20538;-41
2023/03/02 01:21:08;;;;;;;28.70;23.23;;;4.00;1.00;;;;;;5036398;28;20498;-40
2023/03/02 01:23:34;;;;;;;28.53;23.53;;;3.90;1.00;;;;;;5034722;28;20455;-41
2023/03/02 01:25:59;;;;;;;27.87;22.23;;;3.90;1.00;;;;;;5034565;28;20516;-41
2023/03/02 01:28:25;;;;;;;29.57;22.80;;;3.90;1.00;;;;;;5034884;28;20437;-40
2023/03/02 01:30:51;;;;;;;29.07;22.47;;;3.80;1.00;;;;;;5035352;28;20397;-40
2023/03/02 01:33:16;;;;;;;28.90;23.00;;;3.80;1.00;;;;;;5035386;28;20242;-41
2023/03/02 01:35:46;;;;;;;28.07;21.47;;;3.80;1.00;;;;;;5034240;28;20317;-39
2023/03/02 01:38:11;;;;;;;30.20;24.40;;;3.80;1.00;;;;;;5036400;28;20656;-42
2023/03/02 01:40:37;;;;;;;27.10;21.40;;;3.80;1.00;;;;;;5038027;28;20428;-40
2023/03/02 01:43:10;;;;;;;29.27;22.93;;;3.80;1.00;;;;;;5038415;28;20694;-41
2023/03/02 01:45:47;;;;;;;29.17;21.67;;;3.70;1.00;;;;;;5038689;28;20504;-40
2023/03/02 01:48:15;;;;;;;26.50;22.03;;;3.70;1.00;;;;;;5038323;28;20448;-42
2023/03/02 01:50:41;;;;;;;27.97;22.47;;;3.70;1.00;;;;;;5037202;28;20501;-41
2023/03/02 01:53:07;;;;;;;29.83;23.30;;;3.70;1.00;;;;;;5034228;28;20531;-41
2023/03/02 01:55:33;;;;;;;25.60;21.30;;;3.70;1.00;;;;;;5038902;28;20425;-40
2023/03/02 01:58:00;;;;;;;28.07;22.47;;;3.70;1.00;;;;;;5038558;28;20476;-40
2023/03/02 02:00:36;;;;;;;28.47;21.73;;;3.60;1.00;;;;;;5038253;28;20483;-43
2023/03/02 02:03:10;;;;;;;29.77;24.03;;;3.60;1.00;;;;;;5038075;28;20814;-41
2023/03/02 02:05:38;;;;;;;33.07;23.23;;;3.60;1.00;;;;;;5038909;28;20535;-40
2023/03/02 02:08:05;;;;;;;27.87;23.00;;;3.60;1.00;;;;;;5020970;28;20444;-40
2023/03/02 02:10:31;;;;;;;28.57;22.60;;;3.50;1.00;;;;;;5037714;28;20554;-41
2023/03/02 02:12:57;;;;;;;29.70;22.87;;;3.60;1.00;;;;;;5037014;28;20420;-42
2023/03/02 02:15:22;;;;;;;26.77;22.40;;;3.50;1.00;;;;;;5038575;28;20413;-41
2023/03/02 02:17:49;;;;;;;28.03;22.53;;;3.50;1.00;;;;;;5039082;28;20626;-41
2023/03/02 02:20:29;;;;;;;28.77;22.20;;;3.50;1.00;;;;;;5038295;28;20330;-39
2023/03/02 02:23:00;;;;;;;29.23;22.70;;;3.50;1.00;;;;;;5037434;28;20413;-40
2023/03/02 02:25:44;;;;;;;29.57;23.30;;;3.40;1.00;;;;;;5039221;28;20507;-39
2023/03/02 02:28:20;;;;;;;30.60;23.10;;;3.40;1.00;;;;;;5037590;28;20448;-40
2023/03/02 02:30:49;;;;;;;28.90;23.10;;;3.40;1.00;;;;;;5037585;28;20457;-42
2023/03/02 02:33:19;;;;;;;30.37;23.30;;;3.40;1.00;;;;;;5038768;28;20477;-40
2023/03/02 02:35:46;;;;;;;30.20;24.17;;;3.40;1.00;;;;;;5038009;28;20467;-39
2023/03/02 02:38:13;;;;;;;28.60;24.30;;;3.30;1.00;;;;;;5037600;28;20930;-39
2023/03/02 02:40:48;;;;;;;32.57;23.73;;;3.30;1.00;;;;;;5037143;28;20417;-40
2023/03/02 02:43:17;;;;;;;28.93;23.00;;;3.30;1.00;;;;;;5037407;28;20861;-41
2023/03/02 02:45:43;;;;;;;32.23;24.30;;;3.30;1.00;;;;;;5038671;28;20494;-41
2023/03/02 02:48:15;;;;;;;32.63;24.10;;;3.30;1.00;;;;;;5038249;28;20425;-39
2023/03/02 02:50:42;;;;;;;29.30;22.10;;;3.30;1.00;;;;;;5038265;28;20421;-40
2023/03/02 02:53:12;;;;;;;31.97;23.20;;;3.30;5.70;;;;;;5036612;28;20449;-41
2023/03/02 02:55:38;;;;;;;32.43;23.70;;;3.30;7.90;;;;;;5036204;28;20424;-42
2023/03/02 02:58:23;;;;;;;31.57;23.73;;;3.20;11.50;;;;;;5037286;28;20472;-43
2023/03/02 03:00:48;;;;;;;31.60;23.67;;;3.20;22.90;;;;;;5036438;28;20454;-43
2023/03/02 03:03:30;;;;;;;33.73;22.27;;;3.20;31.10;;;;;;5036748;28;20528;-41
2023/03/02 03:05:57;;;;;;;32.60;23.60;;;3.20;47.10;;;;;;5036019;28;20175;-42
2023/03/02 03:08:44;;;;;;;31.23;23.33;;;3.20;56.60;;;;;;5037860;28;20880;-40
2023/03/02 03:11:12;;;;;;;30.13;22.30;;;3.20;75.00;;;;;;5038569;28;20559;-43
2023/03/02 03:13:39;;;;;;;29.93;23.77;;;3.20;73.50;;;;;;5038615;28;20502;-41
2023/03/02 03:16:05;;;;;;;29.97;22.80;;;3.10;77.60;;;;;;5037223;28;20437;-40
2023/03/02 03:18:31;;;;;;;27.70;22.10;;;3.20;72.90;;;;;;5037085;28;20590;-42
2023/03/02 03:20:57;;;;;;;27.73;22.13;;;3.10;87.20;;;;;;5036366;28;20786;-41
2023/03/02 03:23:23;;;;;;;31.00;24.27;;;3.10;94.70;;;;;;5037695;28;20521;-40
2023/03/02 03:25:48;;;;;;;31.33;24.17;;;3.10;99.90;;;;;;5037271;28;20591;-41
2023/03/02 03:28:14;;;;;;;32.20;24.37;;;3.10;99.90;;;;;;5038064;28;20275;-41
2023/03/02 03:30:40;;;;;;;34.07;25.20;;;3.10;99.90;;;;;;5038555;28;20226;-42
2023/03/02 03:33:09;;;;;;;32.57;23.47;;;3.00;99.90;;;;;;5037556;28;20213;-40
2023/03/02 03:35:36;;;;;;;35.10;26.43;;;3.00;99.90;;;;;;5037418;28;20178;-40
2023/03/02 03:38:04;;;;;;;30.43;23.57;;;3.00;99.90;;;;;;5037386;28;20921;-41
2023/03/02 03:40:33;;;;;;;31.40;23.73;;;3.00;99.90;;;;;;5037115;28;20508;-42
2023/03/02 03:43:02;;;;;;;33.50;25.37;;;3.00;99.90;;;;;;5035706;28;20507;-40
2023/03/02 03:45:28;;;;;;;34.20;25.00;;;2.90;99.90;;;;;;5037535;28;20811;-40
2023/03/02 03:47:54;;;;;;;32.40;25.00;;;2.90;99.90;;;;;;5035898;28;20506;-41
2023/03/02 03:50:20;;;;;;;30.90;23.80;;;2.90;99.90;;;;;;5036907;28;20520;-40
2023/03/02 03:52:46;;;;;;;33.90;25.97;;;2.90;99.90;;;;;;5036374;28;20416;-41
2023/03/02 03:55:12;;;;;;;29.80;25.23;;;2.90;99.90;;;;;;5036484;28;20432;-41
2023/03/02 03:57:38;;;;;;;29.10;22.80;;;2.90;99.90;;;;;;5036353;28;20427;-40
2023/03/02 04:00:06;;;;;;;32.10;24.80;;;2.90;99.90;;;;;;5035833;28;20456;-40
2023/03/02 04:02:33;;;;;;;31.30;23.87;;;2.90;99.90;;;;;;5036194;28;20174;-41
2023/03/02 04:05:05;;;;;;;33.67;24.80;;;2.90;99.90;;;;;;5036198;28;20441;-40
2023/03/02 04:07:31;;;;;;;32.47;25.20;;;2.80;99.90;;;;;;5036527;28;20418;-41
2023/03/02 04:10:02;;;;;;;31.73;25.00;;;2.80;99.90;;;;;;5036909;28;20502;-41
2023/03/02 04:12:33;;;;;;;32.07;23.73;;;2.80;99.90;;;;;;5036654;28;20417;-44
2023/03/02 04:14:58;;;;;;;33.73;25.50;;;2.80;99.90;;;;;;5036625;28;20750;-41
2023/03/02 04:17:24;;;;;;;30.37;24.70;;;2.80;99.90;;;;;;5035635;28;20460;-40
2023/03/02 04:19:50;;;;;;;29.57;24.10;;;2.80;99.90;;;;;;5036581;28;20187;-41
2023/03/02 04:22:16;;;;;;;32.20;25.10;;;2.80;99.90;;;;;;5036735;28;20822;-43
2023/03/02 04:24:42;;;;;;;31.73;24.00;;;2.80;99.90;;;;;;5036669;28;20483;-43
2023/03/02 04:27:08;;;;;;;30.77;23.23;;;2.80;99.90;;;;;;5036585;28;20578;-41
2023/03/02 04:29:34;;;;;;;27.93;22.60;;;2.80;99.90;;;;;;5036513;28;20567;-41
2023/03/02 04:32:00;;;;;;;33.27;24.40;;;2.80;99.90;;;;;;5035702;28;20434;-42
2023/03/02 04:34:25;;;;;;;29.47;24.00;;;2.80;99.90;;;;;;5035388;28;20433;-42
2023/03/02 04:36:51;;;;;;;34.93;25.83;;;2.80;99.90;;;;;;5034266;28;20197;-41
2023/03/02 04:39:18;;;;;;;30.07;24.10;;;2.80;99.90;;;;;;5035257;28;20348;-40
2023/03/02 04:41:44;;;;;;;30.10;22.70;;;2.80;99.90;;;;;;5035484;28;20179;-41
2023/03/02 04:44:10;;;;;;;32.03;24.50;;;2.80;99.90;;;;;;5036325;28;20444;-43
2023/03/02 04:46:36;;;;;;;29.50;23.53;;;2.80;99.90;;;;;;5036056;28;20665;-40
2023/03/02 04:49:03;;;;;;;31.47;26.30;;;2.80;99.90;;;;;;5035572;28;20523;-41
2023/03/02 04:51:33;;;;;;;31.70;25.70;;;2.80;99.90;;;;;;5033918;28;20284;-41
2023/03/02 04:54:09;;;;;;;31.23;26.57;;;2.80;99.90;;;;;;5034242;28;20428;-42
2023/03/02 04:56:34;;;;;;;36.30;29.53;;;2.80;99.90;;;;;;5032979;28;20429;-41
2023/03/02 04:59:00;;;;;;;30.87;26.10;;;2.80;99.90;;;;;;5032122;28;20590;-42
2023/03/02 05:01:26;;;;;;;33.17;27.10;;;2.80;99.90;;;;;;5030714;28;20181;-41
2023/03/02 05:03:52;;;;;;;35.20;28.20;;;2.90;99.90;;;;;;5031888;28;20277;-40
2023/03/02 05:06:20;;;;;;;36.87;26.60;;;2.90;99.90;;;;;;5033361;28;20444;-41
2023/03/02 05:08:46;;;;;;;31.67;23.63;;;2.90;99.90;;;;;;5032845;28;20516;-41
2023/03/02 05:11:23;;;;;;;33.00;25.97;;;2.90;99.90;;;;;;5033428;28;20519;-42
2023/03/02 05:13:57;;;;;;;31.03;25.10;;;2.90;99.90;;;;;;5036123;28;20428;-41
2023/03/02 05:16:24;;;;;;;32.93;24.13;;;3.00;99.90;;;;;;5035987;28;20408;-41
2023/03/02 05:18:50;;;;;;;36.03;27.07;;;3.00;99.90;;;;;;5037049;28;20725;-43
2023/03/02 05:21:17;;;;;;;39.03;26.57;;;3.00;99.90;;;;;;5037525;28;20417;-41
2023/03/02 05:23:43;;;;;;;32.00;25.13;;;3.00;99.90;;;;;;5036540;28;20440;-42
2023/03/02 05:26:09;;;;;;;33.13;25.70;;;3.00;99.90;;;;;;5038074;28;20409;-42
2023/03/02 05:28:35;;;;;;;32.47;25.00;;;3.00;99.90;;;;;;5037622;28;20448;-41
2023/03/02 05:31:01;;;;;;;30.53;25.20;;;3.00;99.90;;;;;;5035368;28;20448;-41
2023/03/02 05:33:27;;;;;;;33.03;25.00;;;3.00;99.90;;;;;;5037661;28;20443;-41
2023/03/02 05:35:53;;;;;;;33.53;25.77;;;3.00;99.90;;;;;;5037968;28;20487;-43
2023/03/02 05:38:19;;;;;;;33.97;25.20;;;3.00;99.90;;;;;;5037917;28;20809;-41
2023/03/02 05:40:45;;;;;;;32.80;25.30;;;3.00;99.90;;;;;;5037738;28;20262;-42
2023/03/02 05:43:15;;;;;;;33.80;25.37;;;3.00;99.90;;;;;;5037272;28;20234;-41
2023/03/02 05:45:40;;;;;;;34.03;25.50;;;3.00;99.90;;;;;;5038394;28;20424;-42
2023/03/02 05:48:07;;;;;;;36.17;25.90;;;3.00;99.90;;;;;;5038831;28;20456;-40
2023/03/02 05:50:33;;;;;;;33.23;24.67;;;3.00;99.90;;;;;;5037700;28;20190;-41
2023/03/02 05:53:01;;;;;;;31.03;24.67;;;3.10;99.90;;;;;;5036882;28;20424;-41
2023/03/02 05:55:27;;;;;;;36.33;26.10;;;3.00;99.90;;;;;;5036173;28;20568;-41
2023/03/02 05:57:53;;;;;;;36.83;26.63;;;3.10;99.90;;;;;;5036278;28;20559;-42
2023/03/02 06:00:19;;;;;;;34.50;24.67;;;3.10;99.90;;;;;;5035487;28;20505;-43
2023/03/02 06:02:45;;;;;;;35.00;25.43;;;3.10;99.90;;;;;;5035232;28;20445;-41
2023/03/02 06:05:21;;;;;;;35.00;26.27;;;3.10;99.90;;;;;;5036918;28;20417;-41
2023/03/02 06:07:47;;;;;;;33.03;25.40;;;3.20;99.90;;;;;;5034127;28;20436;-41
2023/03/02 06:10:13;;;;;;;32.97;24.80;;;3.20;99.90;;;;;;5033979;28;20432;-41
2023/03/02 06:12:39;;;;;;;37.90;26.10;;;3.20;99.90;;;;;;5013697;28;20468;-41
2023/03/02 06:15:05;;;;;;;32.80;25.33;;;3.30;99.90;;;;;;5027966;28;20445;-44
2023/03/02 06:17:31;;;;;;;30.20;23.37;;;3.30;99.90;;;;;;5029533;28;20217;-41
2023/03/02 06:19:57;;;;;;;30.50;24.37;;;3.30;99.90;;;;;;5028420;28;20507;-43
2023/03/02 06:22:22;;;;;;;35.23;25.00;;;3.30;99.90;;;;;;5031067;28;20202;-42
2023/03/02 06:24:49;;;;;;;35.47;27.00;;;3.30;99.90;;;;;;5028287;28;20504;-42
2023/03/02 06:27:15;;;;;;;33.33;25.33;;;3.40;99.90;;;;;;5029885;28;20179;-42
2023/03/02 06:29:41;;;;;;;32.03;26.00;;;3.40;99.90;;;;;;5031118;28;20737;-42
2023/03/02 06:32:07;;;;;;;28.00;22.10;;;3.40;99.90;;;;;;5030416;28;20428;-41
2023/03/02 06:34:32;;;;;;;33.03;26.50;;;3.40;99.90;;;;;;5031274;28;20182;-42
2023/03/02 06:36:58;;;;;;;32.57;25.57;;;3.50;99.90;;;;;;5032591;28;20428;-43
2023/03/02 06:39:24;;;;;;;31.43;25.47;;;3.50;99.90;;;;;;5031840;28;20318;-41
2023/03/02 06:41:50;;;;;;;31.37;23.93;;;3.60;99.90;;;;;;5027579;28;20468;-42
2023/03/02 06:44:16;;;;;;;39.73;25.57;;;3.60;99.90;;;;;;5028621;28;20402;-42
2023/03/02 06:46:42;;;;;;;32.43;24.27;;;3.60;99.90;;;;;;5029180;28;20413;-41
2023/03/02 06:49:09;;;;;;;32.93;25.90;;;3.70;99.90;;;;;;5032534;28;20436;-39
2023/03/02 06:51:35;;;;;;;33.80;25.83;;;3.70;99.90;;;;;;5031251;28;20420;-40
2023/03/02 06:54:01;;;;;;;34.00;24.80;;;3.70;99.90;;;;;;5029953;28;20520;-40
2023/03/02 06:56:27;;;;;;;30.90;23.20;;;3.70;99.90;;;;;;5030712;28;20567;-42
2023/03/02 06:58:52;;;;;;;31.40;24.47;;;3.80;99.90;;;;;;5030988;28;21082;-40
2023/03/02 07:01:18;;;;;;;30.23;24.37;;;3.80;99.90;;;;;;5042886;28;20180;-41
2023/03/02 07:03:44;;;;;;;33.13;25.50;;;3.80;99.90;;;;;;5050623;28;20178;-40
2023/03/02 07:06:11;;;;;;;30.77;25.87;;;3.80;99.90;;;;;;5049154;28;20170;-43
2023/03/02 07:08:37;;;;;;;32.20;24.10;;;3.90;99.90;;;;;;5046838;28;20449;-39
2023/03/02 07:11:11;;;;;;;32.20;24.13;;;3.90;99.90;;;;;;5030484;28;20420;-41
2023/03/02 07:13:37;;;;;;;36.20;24.57;;;4.00;99.90;;;;;;5032907;28;20185;-40
2023/03/02 07:16:11;;;;;;;30.90;24.73;;;4.00;99.90;;;;;;5030285;28;20423;-41
2023/03/02 07:18:37;;;;;;;30.97;24.40;;;4.10;99.90;;;;;;5030625;28;20879;-40
2023/03/02 07:21:03;;;;;;;31.77;24.30;;;4.10;99.90;;;;;;5029143;28;20512;-40
2023/03/02 07:23:28;;;;;;;31.23;22.53;;;4.20;99.90;;;;;;5030128;28;20515;-40
2023/03/02 07:25:54;;;;;;;32.73;24.37;;;4.20;99.90;;;;;;5031602;28;20224;-40
2023/03/02 07:28:22;;;;;;;34.83;24.90;;;4.30;99.90;;;;;;5033518;28;20785;-41
2023/03/02 07:30:52;;;;;;;30.80;23.87;;;4.40;99.90;;;;;;5035677;28;20288;-41
2023/03/02 07:33:21;;;;;;;28.33;23.13;;;4.40;94.50;;;;;;5033868;28;20459;-43
2023/03/02 07:35:47;;;;;;;32.60;24.13;;;4.50;79.10;;;;;;5033001;28;20774;-41
2023/03/02 07:38:12;;;;;;;32.43;24.10;;;4.50;56.10;;;;;;5033280;28;20559;-41
2023/03/02 07:40:41;;;;;;;28.93;24.17;;;4.60;46.10;;;;;;5015592;28;20517;-41
2023/03/02 07:43:07;;;;;;;30.30;24.97;;;4.70;34.10;;;;;;5031546;28;20293;-40
2023/03/02 07:45:33;;;;;;;34.43;25.70;;;4.70;23.50;;;;;;5033673;28;20531;-42
2023/03/02 07:47:59;;;;;;;29.87;23.43;;;4.80;18.90;;;;;;5033082;28;20417;-41
2023/03/02 07:50:24;;;;;;;30.80;24.10;;;4.80;15.40;;;;;;5036195;28;20194;-41
2023/03/02 07:52:50;;;;;;;31.57;23.90;;;4.80;10.50;;;;;;5033735;28;20189;-41
2023/03/02 07:55:16;;;;;;;32.63;24.30;;;4.90;6.90;;;;;;5032329;28;20194;-41
2023/03/02 07:57:41;;;;;;;29.50;24.27;;;4.90;2.50;;;;;;5031637;28;20620;-42
2023/03/02 08:00:08;;;;;;;29.50;24.30;;;5.00;1.00;;;;;;5030929;28;20240;-41
2023/03/02 08:02:33;;;;;;;32.43;24.70;;;5.00;1.00;;;;;;5033967;28;20175;-42
2023/03/02 08:04:59;;;;;;;32.03;24.50;;;5.10;1.00;;;;;;5033840;28;20425;-41
2023/03/02 08:07:25;;;;;;;34.63;24.97;;;5.20;1.00;;;;;;5031116;28;20556;-42
2023/03/02 08:09:50;;;;;;;32.00;24.17;;;5.20;1.00;;;;;;5031234;28;20182;-41
2023/03/02 08:12:16;;;;;;;32.53;24.57;;;5.30;1.00;;;;;;5033480;28;20281;-44
2023/03/02 08:14:42;;;;;;;29.73;22.73;;;5.30;1.00;;;;;;5034767;28;20197;-42
2023/03/02 08:17:07;;;;;;;28.50;22.40;;;5.40;1.00;;;;;;5033138;28;20179;-43
2023/03/02 08:19:33;;;;;;;30.83;24.43;;;5.40;1.00;;;;;;5032017;28;20190;-41
2023/03/02 08:22:00;;;;;;;27.50;22.40;;;5.50;1.00;;;;;;5029972;28;20194;-42
2023/03/02 08:24:25;;;;;;;29.20;22.10;;;5.60;1.00;;;;;;5031207;28;20213;-43
2023/03/02 08:26:51;;;;;;;33.30;24.77;;;5.60;1.00;;;;;;5032695;28;20537;-41
2023/03/02 08:29:17;;;;;;;28.10;23.77;;;5.60;1.00;;;;;;5031047;28;20304;-41
2023/03/02 08:31:42;;;;;;;29.33;23.90;;;5.70;1.00;;;;;;5030298;28;20271;-42
2023/03/02 08:34:08;;;;;;;27.83;22.23;;;5.70;1.00;;;;;;5031533;28;20193;-43
2023/03/02 08:36:34;;;;;;;29.40;22.50;;;5.70;1.00;;;;;;5032930;28;20335;-41
2023/03/02 08:38:59;;;;;;;31.40;23.47;;;5.70;1.00;;;;;;5032857;28;20224;-42
2023/03/02 08:41:25;;;;;;;27.87;22.37;;;5.70;1.00;;;;;;5032279;28;20181;-41
2023/03/02 08:43:54;;;;;;;29.63;24.00;;;5.70;1.00;;;;;;5032672;28;20182;-42
2023/03/02 08:46:20;;;;;;;26.27;22.30;;;5.80;1.00;;;;;;5033465;28;20476;-42
2023/03/02 08:48:46;;;;;;;28.90;22.10;;;5.80;1.00;;;;;;5033403;28;20565;-43
2023/03/02 08:51:14;;;;;;;27.37;22.87;;;5.90;1.00;;;;;;5035863;28;20763;-42
2023/03/02 08:53:42;;;;;;;27.37;22.40;;;6.00;1.00;;;;;;5035803;28;20847;-42
2023/03/02 08:56:19;;;;;;;27.17;22.97;;;6.10;1.00;;;;;;5035974;28;20491;-42
2023/03/02 08:58:45;;;;;;;25.83;21.00;;;6.20;1.00;;;;;;5035530;28;20476;-43
2023/03/02 09:01:19;;;;;;;29.03;21.60;;;6.40;1.00;;;;;;5036560;28;20474;-42
2023/03/02 09:03:45;;;;;;;29.50;23.23;;;6.50;1.00;;;;;;5036097;28;20527;-42
2023/03/02 09:06:11;;;;;;;25.43;21.13;;;6.70;1.00;;;;;;5035307;28;20516;-44
2023/03/02 09:08:37;;;;;;;27.27;21.70;;;6.90;1.00;;;;;;5037355;28;20440;-41
2023/03/02 09:11:03;;;;;;;25.50;19.47;;;7.10;1.00;;;;;;5037307;28;20174;-42
2023/03/02 09:13:29;;;;;;;24.97;19.97;;;7.40;1.00;;;;;;5037566;28;20471;-43
2023/03/02 09:15:55;;;;;;;29.53;21.87;;;7.60;1.00;;;;;;5038150;28;20559;-42
2023/03/02 09:18:20;;;;;;;28.13;22.17;;;7.80;1.00;;;;;;5037929;28;20614;-42
2023/03/02 09:20:52;;;;;;;26.67;20.97;;;8.10;1.00;;;;;;5037490;28;20260;-43
2023/03/02 09:23:19;;;;;;;25.60;21.93;;;8.30;1.00;;;;;;5036170;28;20488;-42
2023/03/02 09:25:47;;;;;;;25.13;21.27;;;8.60;1.00;;;;;;5035226;28;20664;-43
2023/03/02 09:28:14;;;;;;;28.43;22.37;;;8.80;1.00;;;;;;5034731;28;20449;-40
2023/03/02 09:30:40;;;;;;;22.70;19.37;;;9.00;1.00;;;;;;5036665;28;20794;-43
2023/03/02 09:33:05;;;;;;;25.60;22.67;;;9.30;1.00;;;;;;5035852;28;20456;-42
2023/03/02 09:35:31;;;;;;;25.00;20.30;;;9.50;1.00;;;;;;5030595;28;20475;-42
2023/03/02 09:37:57;;;;;;;25.30;19.77;;;9.70;1.00;;;;;;5016834;28;20501;-40
2023/03/02 09:40:25;;;;;;;24.37;19.27;;;9.90;1.00;;;;;;5016005;28;20171;-41
2023/03/02 09:42:53;;;;;;;22.07;19.13;;;10.10;1.00;;;;;;5016239;28;20171;-42
2023/03/02 09:45:28;;;;;;;25.10;19.93;;;10.30;1.00;;;;;;5017273;28;20415;-42
2023/03/02 09:48:29;;;;;;;23.20;20.70;;;10.50;1.00;;;;;;5015293;28;20401;-43
2023/03/02 09:50:57;;;;;;;24.87;21.10;;;10.70;1.00;;;;;;5015472;28;20533;-42
2023/03/02 09:53:38;;;;;;;20.60;18.23;;;10.80;1.00;;;;;;5015824;28;20856;-42
2023/03/02 09:56:15;;;;;;;24.13;19.73;;;11.00;1.00;;;;;;5013959;28;20414;-41
2023/03/02 09:58:48;;;;;;;24.70;18.57;;;11.20;1.00;;;;;;5012969;28;20543;-42
2023/03/02 10:01:27;;;;;;;22.10;18.70;;;11.20;1.00;;;;;;5013194;28;20525;-40
2023/03/02 10:04:02;;;;;;;19.63;17.37;;;11.30;1.00;;;;;;5013096;28;20751;-40
2023/03/02 10:06:28;;;;;;;21.47;18.37;;;11.30;1.00;;;;;;5014123;28;20590;-41
2023/03/02 10:08:55;;;;;;;21.77;17.43;;;11.40;1.00;;;;;;5013087;28;20430;-43
2023/03/02 10:11:20;;;;;;;20.33;18.13;;;11.50;1.00;;;;;;5014638;28;20450;-42
2023/03/02 10:14:17;;;;;;;21.10;18.83;;;11.50;1.00;;;;;;5016755;28;20460;-42
2023/03/02 10:16:46;;;;;;;20.43;18.27;;;11.70;1.00;;;;;;5015886;28;20580;-42
2023/03/02 10:19:36;;;;;;;23.67;19.37;;;11.90;1.00;;;;;;5015340;28;20476;-42
2023/03/02 10:22:17;;;;;;;22.50;19.17;;;12.10;1.00;;;;;;5015808;28;20407;-42
2023/03/02 10:25:01;;;;;;;18.90;16.90;;;12.20;1.00;;;;;;5013876;28;20458;-42
2023/03/02 10:27:38;;;;;;;20.97;18.40;;;12.30;1.00;;;;;;5014014;28;20495;-41
2023/03/02 10:30:10;;;;;;;25.73;20.17;;;12.50;1.00;;;;;;5013354;28;20886;-42
2023/03/02 10:32:44;;;;;;;20.67;18.57;;;12.50;1.00;;;;;;5013783;28;20431;-43
2023/03/02 10:35:19;;;;;;;22.20;19.90;;;12.50;1.00;;;;;;5012177;28;20595;-42
2023/03/02 10:37:46;;;;;;;24.03;18.83;;;12.60;1.00;;;;;;5009397;28;20732;-41
2023/03/02 10:40:37;;;;;;;24.27;21.47;;;12.60;1.00;;;;;;5012413;28;20421;-41
2023/03/02 10:43:04;;;;;;;21.23;19.03;;;12.60;1.00;;;;;;5011771;28;20436;-42
2023/03/02 10:45:31;;;;;;;21.53;17.97;;;12.70;1.00;;;;;;4995168;28;20426;-41
2023/03/02 10:48:05;;;;;;;23.50;19.97;;;12.70;1.00;;;;;;5012153;28;20418;-42
2023/03/02 10:50:31;;;;;;;21.97;19.77;;;12.80;1.00;;;;;;5011434;28;20739;-43
2023/03/02 10:52:58;;;;;;;22.60;20.17;;;12.80;1.00;;;;;;5013635;28;20468;-42
2023/03/02 10:55:24;;;;;;;19.47;17.07;;;12.80;1.00;;;;;;5012555;28;20414;-42
2023/03/02 10:58:02;;;;;;;20.27;17.97;;;12.80;1.00;;;;;;5013671;28;20469;-43
2023/03/02 11:00:30;;;;;;;21.67;19.37;;;12.80;1.00;;;;;;5012857;28;20493;-43
2023/03/02 11:02:57;;;;;;;23.90;20.40;;;12.80;1.00;;;;;;5012642;28;20446;-41
2023/03/02 11:05:30;;;;;;;22.43;19.30;;;12.80;1.00;;;;;;5013038;28;20445;-42
2023/03/02 11:08:00;;;;;;;24.80;21.20;;;12.80;1.00;;;;;;5015571;28;20578;-43
2023/03/02 11:10:37;;;;;;;21.17;19.07;;;12.80;1.00;;;;;;5013028;28;20409;-42
2023/03/02 11:13:22;;;;;;;23.13;20.63;;;12.80;1.00;;;;;;5011852;28;20500;-42
2023/03/02 11:15:53;;;;;;;26.43;23.10;;;12.80;1.00;;;;;;5012946;28;20421;-42
2023/03/02 11:18:46;;;;;;;28.07;20.97;;;12.80;1.00;;;;;;5014722;28;20536;-42
2023/03/02 11:21:35;;;;;;;22.90;19.83;;;12.80;1.00;;;;;;5011870;28;20433;-42
2023/03/02 11:24:07;;;;;;;24.50;19.70;;;12.90;1.00;;;;;;5015301;28;20516;-42
2023/03/02 11:26:36;;;;;;;25.07;22.40;;;12.90;1.00;;;;;;5015291;28;20580;-41
2023/03/02 11:29:14;;;;;;;27.77;22.87;;;12.90;1.00;;;;;;5013439;28;20466;-43
2023/03/02 11:32:03;;;;;;;22.47;19.93;;;12.90;1.00;;;;;;5011724;28;20442;-41
2023/03/02 11:34:48;;;;;;;23.93;20.53;;;13.10;1.00;;;;;;5010183;28;20445;-44
2023/03/02 11:37:53;;;;;;;24.13;21.43;;;13.30;1.00;;;;;;5013344;28;20406;-41
2023/03/02 11:40:31;;;;;;;25.00;22.17;;;13.50;1.00;;;;;;4965841;28;20456;-41
2023/03/02 11:42:59;;;;;;;25.80;23.07;;;13.70;1.00;;;;;;5010234;28;20436;-41
2023/03/02 11:45:31;;;;;;;23.90;21.40;;;14.10;1.00;;;;;;5012377;28;20449;-42
2023/03/02 11:48:03;;;;;;;24.70;22.10;;;14.40;1.00;;;;;;5011022;28;20627;-41
2023/03/02 11:50:31;;;;;;;25.90;22.73;;;14.80;1.00;;;;;;5012999;28;20421;-42
2023/03/02 11:52:59;;;;;;;11.37;10.17;;;15.00;1.00;;;;;;5011954;28;20434;-44
2023/03/02 11:55:33;;;;;;;12.20;9.20;;;15.40;1.00;;;;;;5011625;28;20417;-43
2023/03/02 11:58:00;;;;;;;12.07;10.10;;;16.50;1.00;;;;;;5009345;28;20484;-44
2023/03/02 12:00:30;;;;;;;12.20;10.17;;;17.20;1.00;;;;;;5012746;28;20417;-45
2023/03/02 12:03:00;;;;;;;12.70;11.40;;;17.80;1.00;;;;;;5010213;28;20417;-45
2023/03/02 12:05:28;;;;;;;16.20;11.90;;;18.30;1.00;;;;;;5011789;28;20493;-44
2023/03/02 12:08:05;;;;;;;14.17;12.67;;;18.70;1.00;;;;;;5010405;28;20540;-45
2023/03/02 12:10:33;;;;;;;14.47;12.67;;;19.40;1.00;;;;;;5011113;28;20507;-46
2023/03/02 12:13:29;;;;;;;15.53;13.80;;;20.60;1.00;;;;;;5010033;28;20430;-45
2023/03/02 12:15:55;;;;;;;16.10;13.80;;;22.20;1.00;;;;;;5010667;28;20488;-46
2023/03/02 12:18:23;;;;;;;17.03;15.30;;;22.50;1.00;;;;;;5011447;28;20901;-44
2023/03/02 12:21:04;;;;;;;16.40;14.90;;;22.50;1.00;;;;;;5010497;28;20477;-45
2023/03/02 12:23:32;;;;;;;16.17;14.47;;;22.20;1.00;;;;;;4990737;28;20537;-45
2023/03/02 12:26:30;;;;;;;16.63;15.13;;;21.80;1.00;;;;;;5012765;28;20490;-45
2023/03/02 12:29:06;;;;;;;15.57;14.20;;;21.50;1.00;;;;;;5019042;28;20525;-44
2023/03/02 12:31:46;;;;;;;15.43;13.83;;;21.20;1.00;;;;;;5030400;28;20962;-45
2023/03/02 12:34:34;;;;;;;15.40;13.90;;;21.00;1.00;;;;;;5030901;28;20502;-47
2023/03/02 12:37:11;;;;;;;14.47;13.27;;;20.90;1.00;;;;;;5030218;28;20971;-44
2023/03/02 12:40:06;;;;;;;17.43;15.57;;;20.90;1.00;;;;;;5029402;28;20469;-44
2023/03/02 12:42:41;;;;;;;18.17;16.33;;;21.10;1.00;;;;;;5033202;28;20452;-43
2023/03/02 12:45:19;;;;;;;16.90;15.30;;;21.70;1.00;;;;;;5029013;28;20594;-44
2023/03/02 12:47:46;;;;;;;17.73;16.10;;;22.30;1.00;;;;;;5031824;28;20463;-44
2023/03/02 12:50:19;;;;;;;19.27;17.50;;;22.70;1.00;;;;;;5031729;28;20708;-42